Date,TemperatureHighF,TemperatureAvgF,TemperatureLowF,DewpointHighF,DewpointAvgF,DewpointLowF,HumidityHigh,HumidityAvg,HumidityLow,PressureMaxIn,PressureMinIn,WindSpeedMaxMPH,WindSpeedAvgMPH,GustSpeedMaxMPH,PrecipitationSumIn
2013-1-1,17.1,8.6,-2.0,6.2,-1.1,-9.1,71,64,56,30.21,30.03,14,3,14,0.00
2013-1-2,19.2,15.9,12.7,12.0,8.0,0.0,79,71,56,30.06,29.97,14,1,14,0.00
2013-1-3,23.2,18.4,15.1,16.0,10.4,5.3,82,71,60,30.12,29.91,22,3,22,0.00
2013-1-4,36.3,22.2,10.0,21.2,10.8,0.3,74,61,51,30.15,29.91,18,3,18,0.00
2013-1-5,33.1,24.1,16.5,20.2,14.9,9.6,80,68,53,30.15,29.88,14,4,14,0.00
2013-1-6,27.0,21.8,13.8,23.7,17.1,7.7,90,82,73,30.21,29.91,18,3,18,0.00
2013-1-7,38.1,27.7,16.0,24.2,16.1,7.2,73,61,54,30.09,29.82,25,8,25,0.00
2013-1-8,38.5,27.9,15.8,25.4,18.6,10.5,84,69,54,30.09,29.76,24,5,24,0.00
2013-1-9,33.1,29.1,19.4,23.7,17.9,9.2,69,62,56,30.38,29.79,19,0,19,21.48
2013-1-10,39.7,31.4,19.6,30.8,17.8,10.1,88,58,46,30.41,29.85,25,8,25,0.08
2013-1-11,40.6,36.8,34.0,40.5,36.2,30.8,100,98,89,29.85,29.50,25,6,25,0.04
2013-1-12,43.5,27.5,12.9,43.5,20.6,3.0,100,75,63,30.03,29.44,25,6,25,0.00
2013-1-13,13.6,10.0,7.2,3.6,0.2,-2.4,64,64,64,30.12,29.97,13,4,13,0.00
2013-1-14,10.4,5.8,1.9,0.5,-3.7,-7.4,64,64,64,30.32,30.12,14,4,14,0.00
2013-1-15,26.2,15.5,3.0,11.4,4.0,-6.6,66,60,52,30.32,29.82,23,7,23,0.00
2013-1-16,25.9,20.4,7.7,21.1,11.1,-3.6,83,67,59,30.15,29.59,28,3,28,0.00
2013-1-17,7.5,2.8,-2.0,-3.8,-8.3,-12.8,59,59,59,30.32,30.15,13,4,13,0.00
2013-1-18,19.8,11.2,-3.8,14.1,2.3,-14.5,80,67,59,30.29,29.79,15,4,15,0.00
2013-1-19,33.1,19.2,3.7,28.2,13.9,-3.5,89,79,71,29.94,29.59,44,7,44,0.00
2013-1-20,5.4,-0.5,-6.2,-2.0,-7.6,-13.1,71,71,71,30.21,29.94,27,5,27,0.00
2013-1-21,-6.2,-12.5,-15.2,-13.1,-19.2,-21.8,71,71,71,30.15,30.09,14,4,14,0.00
2013-1-22,0.0,-9.0,-17.0,-7.2,-15.8,-23.5,71,71,71,30.24,30.15,10,2,10,0.00
2013-1-23,6.6,-2.8,-13.5,-0.8,-9.9,-20.2,71,71,71,30.44,30.06,21,4,21,0.00
2013-1-24,6.6,1.3,-4.5,-0.8,-5.8,-11.5,71,71,71,30.59,30.24,13,2,13,0.00
2013-1-25,19.8,10.8,5.5,12.6,3.8,-1.8,76,73,71,30.24,29.91,18,5,18,0.00
2013-1-26,18.5,13.6,8.1,12.8,7.2,1.5,78,75,70,30.35,30.18,16,2,16,0.00
2013-1-27,30.7,24.5,15.3,26.8,16.9,7.2,94,73,61,30.24,29.91,16,6,16,0.00
2013-1-28,30.9,29.5,27.9,29.2,26.4,22.6,94,88,78,29.94,29.82,14,4,14,0.00
2013-1-29,35.6,33.0,28.6,35.6,32.3,25.8,100,97,89,29.82,29.59,19,2,19,0.00
2013-1-30,28.6,17.8,11.8,25.9,12.7,6.1,90,80,77,29.73,29.56,22,5,22,0.04
2013-1-31,12.6,8.6,1.8,7.0,3.2,-3.5,78,78,78,30.03,29.59,19,6,19,0.00
2013-2-1,3.6,-5.0,-15.7,-2.1,-10.1,-20.5,78,78,78,30.18,30.03,12,1,12,0.00
2013-2-2,17.1,2.7,-8.3,7.5,-5.2,-13.3,78,70,59,30.12,29.94,0,0,0,0.00
2013-2-3,7.5,4.5,1.9,-4.0,-6.7,-9.1,59,59,59,30.00,29.88,16,1,16,0.00
2013-2-4,15.4,2.2,-8.7,3.7,-9.0,-19.1,59,59,58,30.00,29.82,11,2,11,0.00
2013-2-5,19.4,11.6,1.0,12.5,3.0,-5.3,75,68,58,30.09,29.67,15,4,15,0.00
2013-2-6,19.9,13.3,1.9,14.5,6.2,-4.4,81,73,64,30.15,30.06,10,2,10,0.00
2013-2-7,23.0,19.6,16.0,19.5,15.3,10.1,86,83,77,30.29,30.15,10,1,10,0.00
2013-2-8,27.5,16.1,11.1,16.2,8.0,1.7,78,70,59,30.41,30.29,8,2,8,0.00
2013-2-9,30.7,19.2,10.9,18.7,10.5,1.5,89,69,60,30.32,30.09,25,7,25,0.00
2013-2-10,32.7,26.9,20.5,32.3,25.3,17.8,99,94,89,30.09,29.38,13,4,13,0.00
2013-2-11,32.7,24.6,21.4,32.5,21.9,17.9,100,89,84,29.94,29.38,25,5,25,0.00
2013-2-12,25.5,22.0,19.0,19.0,16.6,14.0,87,79,72,29.97,29.76,14,2,14,0.00
2013-2-13,44.1,29.4,21.7,29.7,21.1,16.8,82,72,53,29.76,29.67,13,3,13,0.00
2013-2-14,27.9,22.4,16.2,20.1,14.7,6.5,78,72,65,30.06,29.70,20,6,20,0.00
2013-2-15,16.7,11.9,7.3,8.1,3.3,-1.9,74,68,64,30.18,30.06,18,4,18,0.00
2013-2-16,17.2,6.5,-4.0,8.0,-2.7,-12.8,68,65,64,30.18,30.12,13,2,13,0.00
2013-2-17,22.8,9.8,-6.7,9.1,-1.5,-15.4,65,60,53,30.15,29.82,22,6,22,0.00
2013-2-18,32.2,25.8,18.7,23.1,16.6,6.0,88,68,57,29.82,29.56,20,6,20,0.00
2013-2-19,25.3,24.6,23.5,22.3,21.6,20.2,88,88,88,29.59,29.59,19,7,19,0.00
2013-2-20,15.3,6.7,0.0,10.5,2.0,-4.7,84,81,80,30.47,30.35,16,3,16,0.00
2013-2-21,25.0,12.2,0.7,17.4,7.0,-4.0,84,79,71,30.50,30.27,10,2,10,0.00
2013-2-22,27.3,24.2,19.0,22.9,20.2,15.6,87,85,80,30.21,29.85,8,1,8,0.00
2013-2-23,32.9,25.7,18.5,30.6,22.9,15.3,91,89,86,29.94,29.82,16,3,16,0.00
2013-2-24,31.5,26.1,21.2,26.3,21.1,16.8,91,82,67,30.12,29.94,8,1,8,0.00
2013-2-25,37.4,29.9,21.7,25.8,22.2,17.4,85,73,61,30.15,30.12,11,2,11,0.00
2013-2-26,43.2,29.6,20.7,31.1,21.0,17.1,88,71,53,30.15,29.97,17,3,17,0.04
2013-2-27,30.6,28.7,27.1,23.4,21.1,18.9,79,73,66,30.03,29.91,22,6,22,0.04
2013-2-28,27.0,22.7,19.6,20.7,15.8,10.9,84,75,67,30.29,30.03,21,3,21,0.04
2013-3-1,29.5,19.0,12.7,13.9,8.4,3.2,71,63,52,30.38,30.29,18,2,18,0.00
2013-3-2,30.7,16.2,3.7,15.0,4.5,-8.8,72,60,52,30.35,30.21,16,4,16,0.00
2013-3-3,34.9,14.0,-4.4,18.1,0.9,-16.4,67,55,50,30.24,30.12,13,2,13,0.04
2013-3-4,35.1,22.4,9.0,18.3,8.7,-2.4,66,55,47,30.21,30.12,13,3,13,0.00
2013-3-5,25.9,21.9,20.1,15.9,12.0,6.5,82,65,54,30.29,30.15,15,3,15,0.00
2013-3-6,30.4,21.5,14.9,18.3,13.1,3.5,82,70,56,30.38,30.29,15,3,15,0.00
2013-3-7,34.0,22.4,17.4,19.3,11.5,7.3,71,63,52,30.44,30.35,11,3,11,0.00
2013-3-8,42.1,29.7,17.2,25.3,16.7,7.2,65,58,50,30.41,30.24,18,6,18,0.08
2013-3-9,35.1,31.9,28.0,33.8,25.5,16.7,100,78,61,30.24,29.82,19,6,19,0.04
2013-3-10,34.0,32.0,27.9,34.0,28.8,20.7,100,89,71,30.03,29.82,19,1,19,0.00
2013-3-11,29.1,24.4,19.8,25.2,19.9,14.7,91,83,75,29.97,29.73,22,4,22,0.00
2013-3-12,23.9,20.1,16.7,17.7,14.4,11.3,82,78,71,30.06,29.76,0,0,0,0.00
2013-3-13,36.1,19.8,10.6,20.2,8.6,-2.9,79,62,48,30.29,30.06,21,5,21,0.00
2013-3-14,40.5,23.9,4.8,22.8,10.2,-8.2,64,55,49,30.27,30.00,15,3,15,0.08
2013-3-15,32.7,23.0,10.2,21.9,11.4,-2.3,68,61,55,30.06,30.00,16,5,16,0.00
2013-3-16,21.9,14.0,5.0,10.9,2.2,-7.3,70,59,56,30.21,30.03,25,4,25,0.00
2013-3-17,26.8,15.7,5.0,11.1,1.9,-6.2,59,54,46,30.27,30.03,20,5,20,0.00
2013-3-18,27.9,23.7,16.5,20.9,15.7,4.1,81,71,53,30.03,29.56,18,6,18,0.00
2013-3-19,22.6,16.8,12.2,12.1,8.4,3.9,77,69,57,29.97,29.56,25,7,25,0.00
2013-3-20,19.2,12.6,6.3,12.0,4.5,-3.0,75,69,65,30.06,29.94,20,5,20,0.00
2013-3-21,28.2,16.8,5.4,18.2,9.3,-3.8,78,72,63,30.06,30.06,14,2,14,0.00
2013-3-22,32.5,17.0,2.3,22.1,8.3,-6.9,76,68,64,30.15,30.06,13,2,13,0.00
2013-3-23,31.1,23.9,14.5,21.7,16.2,7.5,83,72,62,30.21,30.12,13,2,13,0.00
2013-3-24,33.1,23.1,14.0,22.8,14.7,6.2,77,70,62,30.18,30.03,15,3,15,0.00
2013-3-25,33.8,28.4,19.6,25.2,18.6,11.7,84,67,57,30.24,30.06,22,6,22,0.00
2013-3-26,38.8,30.8,24.6,27.0,20.9,16.5,81,67,52,30.32,30.24,16,2,16,0.08
2013-3-27,43.5,32.6,22.1,25.1,17.7,8.6,62,54,46,30.35,30.32,16,4,16,0.00
2013-3-28,47.1,30.1,12.0,27.9,15.2,2.5,66,54,44,30.38,30.32,14,2,14,0.00
2013-3-29,52.9,35.3,17.8,29.8,18.5,5.9,63,51,41,30.35,30.18,13,2,13,0.00
2013-3-30,42.4,36.9,34.3,39.4,30.5,18.9,96,79,51,30.18,29.85,15,4,15,0.28
2013-3-31,37.0,30.9,21.2,35.1,19.0,6.9,96,62,51,30.00,29.73,35,7,35,0.00
2013-4-1,28.2,22.3,17.4,12.4,7.8,4.4,57,53,48,30.15,30.00,25,8,25,0.00
2013-4-2,33.6,24.3,16.9,16.6,9.7,3.7,64,53,45,30.35,30.15,22,6,22,0.00
2013-4-3,41.7,27.4,7.5,20.9,10.9,-5.3,60,50,43,30.44,30.06,30,6,30,0.00
2013-4-4,44.1,36.9,27.5,27.5,21.1,13.2,59,52,48,30.18,30.00,25,6,25,0.00
2013-4-5,40.6,29.9,18.3,21.5,15.2,8.5,66,55,43,30.29,30.15,11,2,11,0.00
2013-4-6,34.9,32.0,28.9,31.7,27.8,18.0,99,85,58,30.15,29.65,21,5,21,0.16
2013-4-7,43.0,33.9,29.8,31.4,27.6,22.1,100,79,57,30.00,29.67,11,2,11,0.20
2013-4-8,39.4,35.7,31.8,38.6,34.4,24.5,100,95,74,30.09,29.88,8,1,8,0.51
2013-4-9,38.3,34.3,29.3,37.0,28.4,14.3,100,82,52,30.27,30.09,18,3,18,0.00
2013-4-10,41.2,32.5,25.0,23.5,17.7,13.0,71,54,49,30.27,30.15,16,3,16,0.00
2013-4-11,32.7,27.9,24.8,20.4,16.2,12.8,77,61,51,30.15,29.85,14,4,14,0.00
2013-4-12,32.7,27.4,25.0,23.8,21.7,18.8,91,79,68,29.85,29.76,13,3,13,0.00
2013-4-13,34.9,27.3,18.3,27.6,19.9,9.5,90,75,55,30.03,29.79,19,4,19,0.04
2013-4-14,41.2,28.8,13.3,32.3,20.4,7.5,97,72,49,30.06,29.76,16,3,16,0.20
2013-4-15,44.1,36.4,33.1,35.8,27.8,21.7,100,73,55,29.91,29.65,24,4,24,0.39
2013-4-16,43.0,35.5,28.4,28.2,23.1,15.9,73,61,49,30.41,29.91,19,2,19,0.00
2013-4-17,40.6,33.5,28.6,27.0,22.4,17.6,74,64,53,30.47,30.12,13,2,13,0.00
2013-4-18,33.4,32.0,30.4,33.4,31.3,24.0,100,97,74,30.12,29.41,10,1,10,0.08
2013-4-19,30.4,25.8,22.1,30.4,23.8,19.4,100,92,84,29.94,29.32,28,6,28,0.04
2013-4-20,34.0,23.3,12.6,19.8,14.8,7.8,89,71,51,30.41,29.94,14,1,14,0.12
2013-4-21,38.1,30.6,18.5,30.3,20.0,8.0,85,65,60,30.41,30.15,31,9,31,0.24
2013-4-22,47.3,37.1,30.0,37.4,29.1,18.2,100,75,48,30.27,30.15,19,4,19,0.00
2013-4-23,40.3,31.5,21.9,32.4,24.9,12.0,96,78,52,30.18,30.06,24,6,24,0.00
2013-4-24,47.5,32.0,12.6,30.5,20.1,4.7,90,62,47,30.06,29.94,16,3,16,0.12
2013-4-25,48.4,38.4,32.2,31.2,24.3,17.9,96,60,44,30.24,29.97,13,3,13,0.04
2013-4-26,61.3,42.2,33.6,39.2,29.2,19.1,83,61,44,30.24,30.12,16,6,16,0.08
2013-4-28,62.6,56.9,48.0,45.4,39.4,32.4,87,53,45,29.97,29.82,16,5,16,0.12
2013-4-29,69.4,56.3,43.2,48.7,43.9,33.3,100,68,42,29.91,29.79,10,2,10,0.04
2013-4-30,77.7,60.8,47.3,54.5,46.3,30.9,100,63,41,30.00,29.59,24,6,24,0.00
2013-5-1,50.7,38.6,31.1,33.8,29.1,23.8,94,70,47,30.50,30.00,16,3,16,0.08
2013-5-2,31.1,29.2,27.1,30.1,27.8,24.6,98,95,90,30.56,30.44,0,0,0,0.00
2013-5-3,31.3,29.4,27.3,30.3,27.4,26.0,96,92,88,30.47,30.27,0,0,0,0.00
2013-5-4,49.5,36.3,31.1,41.7,33.3,27.2,100,90,62,30.29,30.24,11,2,11,0.51
2013-5-5,56.1,40.4,33.4,45.0,34.6,26.6,100,82,54,30.27,30.21,15,2,15,0.00
2013-5-6,70.0,53.1,34.0,45.7,39.3,32.0,96,63,42,30.21,30.15,14,3,14,0.00
2013-5-7,76.3,59.9,41.7,48.8,40.4,31.1,72,50,38,30.21,30.09,14,2,14,0.00
2013-5-8,77.2,62.0,51.3,49.6,40.0,33.1,53,45,38,30.15,30.09,15,3,15,0.00
2013-5-9,52.2,40.0,33.6,37.7,35.2,32.8,100,85,53,30.24,30.09,14,3,14,0.28
2013-5-10,53.8,40.2,28.6,33.7,28.5,21.2,100,65,46,30.24,29.97,17,3,17,0.00
2013-5-11,41.5,35.3,30.4,31.3,25.9,21.1,89,69,54,30.12,29.91,31,8,31,0.08
2013-5-12,46.4,34.7,27.3,27.6,22.3,13.5,89,62,45,30.21,30.12,26,8,26,0.00
2013-5-13,56.7,51.0,28.2,32.6,29.8,14.1,55,44,40,30.21,29.82,24,7,24,0.00
2013-5-14,78.8,60.6,43.5,52.3,39.8,27.6,57,46,38,29.88,29.56,22,6,22,0.00
2013-5-15,74.5,62.8,51.3,47.2,41.2,35.6,59,46,38,29.94,29.65,30,7,30,0.00
2013-5-16,69.3,57.9,46.9,43.6,36.5,29.9,58,45,37,30.18,29.94,16,3,16,0.00
2013-5-17,72.5,58.8,44.6,47.5,39.0,28.5,60,48,39,30.24,30.12,13,4,13,0.00
2013-5-18,67.8,57.9,51.1,58.7,51.7,43.5,100,81,60,30.18,30.00,17,5,17,0.83
2013-5-19,82.6,69.1,56.3,58.9,55.8,45.1,92,65,42,30.00,29.85,18,5,18,0.79
2013-5-20,77.7,66.6,55.4,63.3,55.1,49.0,98,70,44,29.88,29.73,16,4,16,0.47
2013-5-21,62.2,51.8,43.5,60.7,48.0,36.7,100,88,62,29.85,29.70,14,3,14,0.51
2013-5-22,49.5,45.7,41.2,49.5,45.1,36.1,100,98,82,30.15,29.85,21,3,21,0.28
2013-5-23,52.5,42.0,36.1,36.1,29.7,22.8,82,63,46,30.41,30.15,19,5,19,0.00
2013-5-24,65.8,49.8,32.7,40.9,33.7,23.8,92,56,40,30.50,30.35,10,2,10,0.00
2013-5-25,68.4,56.3,42.1,43.9,37.0,28.8,67,49,40,30.44,30.35,14,4,14,0.00
2013-5-26,70.2,57.6,42.3,44.2,37.4,27.8,68,48,37,30.44,30.24,15,4,15,0.00
2013-5-27,70.3,58.6,46.0,46.0,38.3,30.5,58,47,39,30.27,30.03,16,5,16,0.00
2013-5-28,63.5,57.4,52.7,49.4,42.8,36.4,79,58,48,30.03,29.85,13,3,13,0.00
2013-5-29,79.2,65.2,53.8,58.4,52.9,48.6,92,68,41,29.94,29.88,14,4,14,0.00
2013-5-30,80.1,68.0,61.3,68.0,61.9,55.1,100,83,50,29.91,29.76,19,6,19,0.12
2013-5-31,78.3,65.0,54.7,64.6,55.9,48.1,97,75,42,29.79,29.70,21,6,21,0.24
2013-6-1,64.6,54.1,39.0,55.7,47.8,37.3,98,80,62,29.97,29.70,19,4,19,0.04
2013-6-2,57.0,45.2,38.7,42.1,37.1,30.6,100,77,47,30.15,29.97,19,5,19,0.04
2013-6-3,59.7,50.2,37.4,41.7,35.4,29.1,95,60,42,30.24,30.12,19,3,19,0.00
2013-6-4,63.5,52.9,41.7,43.3,36.9,27.5,74,55,45,30.29,30.21,13,2,13,0.00
2013-6-5,51.1,49.4,46.6,49.9,48.4,43.1,100,96,75,30.27,30.15,11,2,11,0.94
2013-6-6,56.7,51.3,48.4,53.8,46.8,40.7,100,86,63,30.15,30.15,8,1,8,0.08
2013-6-7,66.4,55.5,43.9,49.2,42.0,35.4,94,63,45,30.15,30.06,10,2,10,0.00
2013-6-8,70.3,59.5,48.7,53.8,44.5,36.7,95,60,44,30.12,30.06,13,2,13,0.04
2013-6-9,63.0,56.7,49.5,56.0,48.6,43.1,92,75,55,30.15,30.00,19,3,19,0.04
2013-6-10,72.7,65.8,58.8,57.0,53.5,50.1,86,65,55,30.00,29.94,16,3,16,0.00
2013-6-11,75.0,64.8,56.3,59.5,52.1,41.2,95,67,42,30.03,29.94,15,3,15,0.00
2013-6-12,77.4,64.5,50.9,51.8,47.0,42.1,81,55,40,30.03,29.94,15,2,15,0.00
2013-6-13,67.8,58.8,52.3,46.9,44.4,41.3,75,60,47,30.24,30.00,21,3,21,0.00
2013-6-14,74.8,61.0,48.0,51.3,47.6,43.3,95,65,38,30.27,30.09,10,2,10,0.00
2013-6-15,66.9,62.4,58.3,66.9,59.3,49.4,100,90,66,30.09,29.94,10,2,10,0.28
2013-6-16,75.6,62.7,54.5,61.3,52.5,40.0,100,74,41,30.03,29.94,34,3,34,0.04
2013-6-17,63.5,56.6,46.2,57.9,47.1,38.2,100,71,61,30.18,30.00,13,2,13,0.00
2013-6-18,69.6,56.1,42.4,45.5,41.6,36.3,92,62,42,30.27,30.18,11,1,11,0.00
2013-6-19,76.3,63.0,48.7,51.0,45.4,36.3,67,54,41,30.24,30.12,11,1,11,0.00
2013-6-20,68.7,63.8,59.4,64.8,57.7,49.8,100,81,62,30.21,30.15,11,2,11,0.79
2013-6-21,67.1,63.2,57.4,67.1,62.8,56.3,100,98,89,30.18,29.97,11,3,11,0.59
2013-6-22,72.9,65.0,57.0,68.7,62.6,57.0,100,93,72,30.21,30.03,11,2,11,0.00
2013-6-23,82.4,72.8,65.8,68.9,61.8,53.1,100,72,45,30.03,29.88,28,4,28,0.00
2013-6-24,81.5,72.0,62.6,65.7,57.3,52.1,100,63,41,30.06,29.94,13,2,13,0.00
2013-6-25,86.4,73.3,64.2,70.2,60.3,54.2,100,67,40,29.97,29.91,10,1,10,0.00
2013-6-26,68.9,65.8,64.4,68.9,63.5,61.3,100,92,82,29.91,29.85,7,1,7,0.00
2013-6-27,79.5,71.6,63.3,66.9,56.1,51.5,85,59,45,29.85,29.82,16,3,16,0.00
2013-6-28,68.2,62.5,57.0,66.6,57.1,51.0,100,83,66,29.91,29.79,15,4,15,0.16
2013-6-29,69.4,59.9,53.1,60.3,51.2,40.9,100,76,45,30.09,29.88,15,3,15,0.00
2013-6-30,76.8,63.3,49.6,53.2,46.4,39.1,87,56,40,30.24,30.09,18,3,18,0.00
2013-7-1,75.0,64.1,52.2,52.9,46.8,39.2,80,55,42,30.32,30.24,14,2,14,0.00
2013-7-2,73.2,60.0,46.8,50.9,43.5,37.1,90,56,42,30.29,30.21,14,2,14,0.00
2013-7-3,79.2,64.7,51.3,53.3,47.4,38.1,79,55,40,30.21,30.09,10,2,10,0.00
2013-7-4,81.7,70.5,60.4,55.9,53.3,50.1,75,56,40,30.12,30.03,13,4,13,0.00
2013-7-5,82.8,74.0,65.1,57.6,54.1,51.7,63,51,40,30.09,29.97,19,5,19,0.00
2013-7-6,85.5,75.2,69.4,63.7,57.8,52.9,77,55,41,30.03,30.00,16,4,16,0.00
2013-7-7,80.8,70.8,64.4,72.9,65.1,56.1,100,83,58,30.06,30.00,21,2,21,2.24
2013-7-8,74.7,66.0,57.4,70.5,60.8,55.2,100,85,60,30.12,30.03,12,3,12,0.39
2013-7-9,76.1,67.9,62.2,74.5,66.7,61.1,100,96,77,30.15,29.88,16,2,16,0.91
2013-7-10,70.0,63.5,58.8,64.9,54.0,47.6,100,74,49,30.15,29.94,21,5,21,0.00
2013-7-11,79.5,67.3,54.1,61.5,51.2,46.2,92,58,41,30.24,30.15,10,1,10,0.00
2013-7-12,80.4,70.4,60.4,57.3,54.1,50.2,76,58,43,30.21,30.09,19,5,19,0.00
2013-7-13,81.1,74.1,65.5,61.3,56.2,51.6,63,54,50,30.24,30.09,18,5,18,0.00
2013-7-14,81.1,70.9,63.0,65.5,59.1,53.3,100,68,49,30.35,30.24,12,3,12,0.20
2013-7-15,85.1,74.2,62.8,69.3,61.4,57.9,98,67,43,30.38,30.32,10,2,10,0.00
2013-7-16,88.5,78.7,69.6,70.2,65.1,59.3,92,65,45,30.35,30.27,13,3,13,0.00
2013-7-17,87.1,78.0,70.0,68.4,62.9,60.2,88,61,46,30.35,30.24,12,2,12,0.00
2013-7-18,87.8,78.2,68.7,77.9,65.7,60.6,100,68,46,30.24,29.82,19,3,19,0.47
2013-7-19,79.0,71.1,62.6,73.2,59.5,49.7,100,69,48,29.94,29.76,21,4,21,0.79
2013-7-20,65.8,60.0,50.0,51.7,44.2,37.6,79,57,45,30.15,29.94,18,3,18,0.00
2013-7-21,71.1,60.2,48.6,54.6,48.1,40.4,84,66,49,30.15,30.00,10,2,10,0.00
2013-7-22,77.7,66.5,59.4,64.1,57.5,46.7,93,74,56,30.00,29.76,24,5,24,0.16
2013-7-23,65.3,58.1,51.6,46.8,44.1,41.2,69,60,47,30.15,29.88,20,5,20,0.00
2013-7-24,69.6,59.1,49.3,54.0,48.4,43.2,94,69,49,30.18,30.09,11,1,11,0.00
2013-7-25,76.3,64.0,56.8,61.3,53.2,47.3,100,70,50,30.12,30.00,11,3,11,1.34
2013-7-26,61.7,54.3,46.6,61.7,53.3,45.6,100,97,88,30.15,30.00,16,3,16,0.00
2013-7-27,54.0,49.9,46.2,53.6,48.8,45.0,100,96,80,30.09,29.97,14,4,14,0.31
2013-7-28,56.1,52.6,48.9,56.1,52.3,47.0,100,99,93,30.15,29.97,19,4,19,0.16
2013-7-29,71.1,60.2,47.1,62.7,50.8,47.0,100,74,48,30.27,30.15,10,1,10,0.00
2013-7-30,68.2,62.5,55.4,58.0,53.9,47.2,92,74,58,30.27,30.18,10,2,10,0.00
2013-7-31,71.8,64.0,59.7,66.7,55.7,44.7,100,77,52,30.18,30.06,15,2,15,0.04
2013-8-1,70.9,62.8,56.1,51.3,47.8,43.7,78,59,46,30.09,29.97,16,3,16,0.00
2013-8-2,68.4,60.5,53.8,59.7,51.7,45.7,100,75,50,30.12,29.94,27,3,27,0.55
2013-8-3,66.7,58.6,51.8,53.5,47.7,43.9,91,68,53,30.29,30.12,16,3,16,0.00
2013-8-4,68.5,58.3,48.7,58.0,47.8,42.8,100,71,46,30.35,30.18,11,1,11,0.00
2013-8-5,65.3,59.6,52.7,65.3,57.6,46.7,100,93,79,30.18,29.94,11,2,11,0.35
2013-8-6,72.9,66.5,62.2,67.8,60.8,53.8,100,84,56,29.94,29.85,11,1,11,0.24
2013-8-7,68.4,61.4,53.8,60.6,52.4,43.1,100,76,44,30.12,29.85,16,3,16,0.00
2013-8-8,67.6,58.4,50.0,54.5,49.7,43.2,95,74,56,30.18,30.09,14,1,14,0.00
2013-8-9,66.2,60.0,54.9,55.5,48.5,43.8,92,67,49,30.21,30.06,19,3,19,0.00
2013-8-10,69.6,60.4,51.6,57.2,48.9,44.5,94,67,46,30.27,30.21,13,2,13,0.00
2013-8-11,71.8,60.8,52.2,55.1,50.9,47.3,87,71,52,30.21,30.12,11,1,11,0.00
2013-8-12,69.3,59.4,48.4,57.2,48.0,37.9,91,67,53,30.21,30.09,18,3,18,0.00
2013-8-13,63.9,54.4,47.3,50.5,43.9,37.8,92,70,46,30.29,30.21,16,3,16,0.00
2013-8-14,66.2,55.9,47.3,47.1,43.3,40.0,92,64,44,30.32,30.21,14,2,14,0.00
2013-8-15,73.0,59.9,50.4,50.9,46.8,43.6,85,64,43,30.24,30.21,19,2,19,0.00
2013-8-16,75.0,63.0,51.6,60.5,51.5,47.1,100,69,43,30.29,30.24,10,1,10,0.00
2013-8-17,77.9,66.4,55.8,57.6,51.6,47.9,90,61,43,30.32,30.24,14,2,14,0.00
2013-8-18,77.2,67.2,57.4,54.4,50.7,46.8,70,56,43,30.27,30.15,13,3,13,0.00
2013-8-19,81.7,70.4,63.0,61.6,56.0,50.1,68,61,50,30.15,30.03,14,4,14,0.00
2013-8-20,82.2,72.1,65.1,63.2,61.1,57.1,88,69,52,30.06,30.00,13,4,13,0.00
2013-8-21,81.5,72.2,62.8,72.4,63.5,48.5,92,75,59,30.15,29.97,14,4,14,0.04
2013-8-22,73.8,64.5,55.0,52.9,48.9,43.5,84,58,42,30.29,30.15,14,3,14,0.00
2013-8-23,78.3,64.1,51.8,55.2,51.5,48.5,92,66,42,30.32,30.21,11,2,11,0.00
2013-8-24,78.3,70.3,60.8,61.7,56.8,52.9,86,63,50,30.29,30.09,21,6,21,0.00
2013-8-25,91.8,80.1,72.3,68.2,64.9,61.7,72,61,45,30.12,30.06,20,5,20,0.00
2013-8-26,82.8,73.7,65.8,76.7,69.0,64.1,100,87,62,30.12,30.06,16,2,16,2.28
2013-8-27,82.6,73.3,67.8,77.9,69.4,62.5,100,89,61,30.06,29.97,13,2,13,0.28
2013-8-28,81.5,72.6,64.4,73.8,65.2,60.0,100,80,51,30.18,30.06,10,1,10,0.00
2013-8-29,80.6,70.9,64.9,71.7,67.9,61.9,100,91,62,30.21,29.97,16,3,16,0.67
2013-8-30,73.6,67.5,61.3,70.9,63.4,55.2,100,88,62,30.09,29.94,16,3,16,0.31
2013-8-31,79.5,67.6,58.5,68.5,60.1,55.8,100,80,51,30.06,29.88,11,2,11,0.12
2013-9-1,70.2,63.8,55.4,65.7,60.0,53.8,100,88,62,30.06,29.82,19,4,19,0.28
2013-9-2,57.0,54.1,50.5,55.4,50.9,46.5,100,90,73,30.18,30.06,14,3,14,0.04
2013-9-3,72.5,59.7,48.2,56.9,49.6,46.8,100,73,46,30.18,30.06,11,2,11,0.00
2013-9-4,65.3,58.3,49.1,53.1,45.7,37.1,82,63,53,30.29,30.09,14,2,14,0.00
2013-9-5,73.6,58.5,46.2,53.9,47.1,43.8,98,69,44,30.41,30.27,10,1,10,0.00
2013-9-6,76.1,67.3,56.8,67.7,57.9,46.8,88,72,58,30.27,30.03,13,3,13,0.00
2013-9-7,76.3,65.8,56.3,68.7,58.8,53.4,98,79,64,30.24,30.00,13,2,13,0.00
2013-9-8,66.7,59.6,50.7,55.5,50.7,47.3,98,74,53,30.27,30.09,11,2,11,0.00
2013-9-9,73.9,66.0,59.9,72.0,63.6,48.5,100,92,65,30.09,29.82,13,2,13,0.00
2013-9-10,75.2,69.6,65.5,70.7,65.5,58.1,100,88,60,30.06,29.85,11,1,11,0.08
2013-9-11,75.2,65.1,55.4,65.3,56.6,46.9,100,76,48,30.15,30.03,19,3,19,0.00
2013-9-12,58.6,54.7,47.5,56.7,47.5,37.7,100,78,57,30.32,30.12,21,4,21,0.00
2013-9-13,60.4,49.9,41.7,49.2,41.4,36.8,97,74,54,30.38,30.21,11,1,11,0.00
2013-9-14,66.9,55.8,44.8,50.4,45.3,41.8,96,70,49,30.21,30.06,14,2,14,0.00
2013-9-15,55.8,49.9,40.5,54.7,47.5,35.6,100,92,71,30.41,30.06,16,2,16,0.12
2013-9-16,62.1,48.9,37.9,52.2,41.6,37.6,100,79,47,30.53,30.38,8,1,8,0.00
2013-9-17,65.5,54.5,43.2,45.4,41.7,36.7,91,64,46,30.41,30.12,16,5,16,0.00
2013-9-18,65.7,60.8,56.5,65.7,58.1,45.2,100,91,64,30.12,29.94,11,3,11,0.01
2013-9-19,79.0,69.2,65.7,71.6,66.7,61.6,100,93,63,29.94,29.79,13,2,13,0.16
2013-9-20,67.3,59.4,50.9,67.3,55.3,43.5,100,87,67,29.94,29.79,19,4,19,0.00
2013-9-21,51.4,46.2,39.2,47.6,40.7,31.7,100,82,57,30.09,29.94,17,4,17,0.20
2013-9-22,59.4,47.9,38.5,48.0,39.6,35.4,100,76,44,30.18,30.09,11,2,11,0.00
2013-9-23,65.5,54.6,45.1,45.8,42.9,40.6,87,67,46,30.18,30.09,15,6,15,0.00
2013-9-24,69.4,56.2,46.2,52.8,46.1,42.2,100,73,40,30.18,30.09,14,3,14,0.00
2013-9-25,70.3,57.3,48.2,57.8,47.4,40.9,100,74,40,30.15,30.06,10,1,10,0.00
2013-9-26,69.4,57.8,47.8,55.8,46.4,42.7,100,70,41,30.18,30.12,14,4,14,0.00
2013-9-27,75.0,64.8,55.9,52.1,46.3,41.1,68,52,41,30.15,30.06,24,7,24,0.00
2013-9-28,72.9,61.3,50.2,60.8,47.8,41.5,96,64,46,30.06,29.76,28,7,28,0.16
2013-9-29,67.6,55.2,46.8,47.1,42.0,35.2,96,64,37,30.09,30.00,13,3,13,0.00
2013-9-30,69.4,61.3,53.8,43.5,40.3,37.9,56,47,37,30.00,29.76,23,7,23,0.00
2013-10-1,71.8,62.9,56.7,48.1,39.9,30.2,59,44,31,30.03,29.73,17,5,17,0.00
2013-10-2,70.9,58.6,47.8,44.5,34.1,28.8,82,41,31,30.18,30.03,11,2,11,0.08
2013-10-3,57.4,52.2,48.6,54.2,48.5,44.7,100,88,66,30.12,30.06,10,1,10,0.20
2013-10-4,57.7,53.0,50.0,55.9,49.0,41.4,100,87,66,30.21,30.12,11,2,11,0.04
2013-10-5,55.2,53.0,49.6,55.2,52.1,42.1,100,97,74,30.21,29.85,13,2,13,0.83
2013-10-6,58.8,52.2,47.5,58.8,51.4,45.8,100,97,78,29.85,29.76,16,3,16,0.16
2013-10-7,57.6,49.0,41.7,49.2,41.3,32.5,100,78,46,30.12,29.85,16,3,16,0.00
2013-10-8,71.8,56.5,40.6,43.6,39.9,36.4,97,59,36,30.15,30.00,24,7,24,0.00
2013-10-9,71.8,62.2,55.8,44.1,40.1,36.0,52,44,36,30.21,30.06,19,6,19,0.00
2013-10-10,70.3,58.5,47.5,44.7,39.5,35.9,70,50,36,30.24,30.12,16,4,16,0.00
2013-10-11,71.2,60.5,51.3,48.3,43.7,37.7,74,55,39,30.15,29.91,26,8,26,0.00
2013-10-12,64.6,57.4,46.9,47.4,39.5,30.8,66,52,39,30.12,29.85,20,6,20,0.00
2013-10-13,56.8,46.8,36.1,40.3,34.1,21.0,78,62,37,30.47,30.12,14,4,14,0.00
2013-10-14,53.8,44.8,33.4,34.8,29.7,24.1,86,58,41,30.53,30.27,10,2,10,0.00
2013-10-15,50.9,47.5,42.6,50.9,44.1,29.4,100,90,49,30.27,29.82,11,3,11,1.06
2013-10-16,50.4,43.3,36.3,46.2,38.9,28.5,100,86,57,29.97,29.85,19,4,19,0.04
2013-10-17,51.3,42.2,35.4,41.9,35.9,30.6,100,80,54,29.97,29.85,7,2,7,0.00
2013-10-18,45.9,40.5,32.9,43.3,37.0,23.2,100,88,56,29.97,29.85,16,3,16,0.35
2013-10-19,45.1,38.0,34.5,42.9,34.3,27.9,100,87,60,29.91,29.76,13,2,13,0.24
2013-10-20,43.7,36.9,34.3,42.9,34.4,27.8,100,91,63,29.88,29.79,10,2,10,0.04
2013-10-21,35.2,33.1,30.7,35.2,30.8,24.8,100,92,77,29.88,29.79,0,0,0,0.00
2013-10-22,36.9,34.6,32.5,36.7,31.6,26.7,100,89,75,30.03,29.82,3,0,3,0.00
2013-10-23,37.2,32.9,28.8,34.7,28.7,23.0,92,85,68,30.06,29.97,4,0,4,0.00
2013-10-24,39.9,35.2,31.5,34.4,31.4,26.1,97,86,73,30.27,30.03,13,1,13,0.00
2013-10-25,46.0,36.7,28.4,31.2,27.8,24.8,88,72,56,30.29,29.73,21,4,21,0.24
2013-10-26,45.5,37.5,33.3,32.5,26.3,21.7,82,64,55,30.09,29.73,29,4,29,0.08
2013-10-27,47.5,36.8,32.2,29.1,26.3,22.5,81,67,44,30.27,29.85,22,3,22,0.00
2013-10-28,37.9,29.7,23.5,24.2,16.1,11.8,74,57,46,30.53,30.27,10,0,10,0.00
2013-10-29,35.8,29.6,22.5,34.2,23.8,16.4,100,80,57,30.53,30.21,10,1,10,0.00
2013-10-30,50.2,41.7,34.2,50.2,41.7,34.2,100,100,100,30.21,29.79,14,1,14,0.08
2013-10-31,53.1,49.5,45.5,53.1,49.5,45.5,100,100,100,29.79,29.38,10,0,10,0.08
2013-11-1,45.5,42.6,39.4,45.5,42.6,39.2,100,100,100,29.85,29.38,14,0,14,0.24
2013-11-2,43.7,39.2,36.5,43.0,38.3,33.5,100,97,80,30.18,29.85,7,0,7,0.04
2013-11-3,46.8,40.6,35.2,40.8,33.9,28.0,100,79,56,30.27,30.15,33,4,33,0.04
2013-11-4,45.5,43.1,38.5,44.8,35.1,29.1,100,74,57,30.18,29.97,0,0,0,0.08
2013-11-5,47.3,37.8,32.5,34.1,28.1,22.5,92,70,46,30.27,30.06,14,2,14,0.00
2013-11-6,34.5,31.9,28.4,34.5,29.6,22.7,100,91,78,30.15,30.00,0,0,0,0.00
2013-11-7,31.8,29.4,28.0,27.7,23.4,19.8,86,78,70,30.21,30.15,0,0,0,0.00
2013-11-8,35.4,29.4,19.2,34.9,22.2,13.1,100,75,66,30.24,29.79,19,3,19,0.00
2013-11-9,36.9,35.8,34.7,36.9,34.4,29.3,100,95,78,30.06,29.67,16,3,16,0.12
2013-11-10,40.3,35.6,32.5,35.6,27.4,20.7,100,73,54,30.29,30.06,13,2,13,0.08
2013-11-11,32.5,32.5,32.5,27.1,26.9,26.7,80,80,79,30.12,30.12,0,0,0,0.00
2013-11-12,21.7,19.8,18.5,3.3,2.7,1.6,49,47,42,30.50,30.41,10,4,10,0.00
2013-11-13,46.0,29.6,18.5,25.5,14.3,2.5,58,53,43,30.41,29.85,22,8,22,0.08
2013-11-14,43.2,36.5,33.8,28.0,24.4,22.1,67,61,54,29.88,29.82,10,2,10,0.00
2013-11-15,51.3,39.0,31.5,33.2,28.4,23.2,85,67,44,29.91,29.82,14,3,14,0.00
2013-11-16,49.3,41.7,38.7,49.1,35.2,26.7,100,79,60,29.82,27.64,16,1,16,0.55
2013-11-17,50.0,42.2,32.2,50.0,38.9,22.2,100,88,66,27.82,27.58,30,3,30,0.00
2013-11-18,32.2,26.9,24.3,22.0,15.0,11.5,66,60,58,28.50,27.82,35,7,35,0.00
2013-11-19,36.5,29.4,20.3,19.2,14.7,10.1,67,54,47,28.59,28.29,31,6,31,0.00
2013-11-20,39.0,35.2,32.0,31.7,21.0,16.5,97,59,46,28.35,28.29,24,9,24,0.00
2013-11-21,34.9,31.0,25.2,34.9,30.7,24.2,100,99,96,28.67,28.35,16,1,16,0.00
2013-11-22,32.2,22.8,12.6,24.2,13.7,3.1,96,69,43,28.73,28.59,19,3,19,0.00
2013-11-23,12.9,9.6,7.2,3.4,0.3,-2.1,65,65,65,28.91,28.70,29,3,29,0.00
2013-11-24,23.0,11.7,-1.3,8.7,0.4,-10.2,65,60,51,28.85,28.14,30,6,30,0.00
2013-11-25,33.8,29.3,22.8,21.4,17.0,8.5,71,60,54,28.20,28.05,27,4,27,0.00
2013-11-26,25.3,15.1,11.1,13.5,6.5,3.5,75,68,60,28.50,28.20,19,3,19,0.00
2013-11-27,23.4,16.9,9.1,15.0,9.5,3.6,78,72,63,28.53,28.38,13,0,13,0.00
2013-11-28,25.0,18.3,15.4,16.7,10.8,5.8,79,72,60,28.67,28.38,8,0,8,0.00
2013-11-29,23.7,20.9,18.3,17.6,13.4,9.4,82,73,63,28.76,28.47,22,4,22,0.00
2013-11-30,32.2,27.0,22.6,23.0,16.9,12.3,78,65,58,28.47,28.29,14,2,14,0.00
2013-12-1,32.0,29.1,26.8,30.7,25.4,21.4,100,86,73,28.44,28.23,7,0,7,0.00
2013-12-2,32.9,28.5,21.7,24.8,22.0,17.5,85,77,68,28.23,28.08,12,2,12,0.00
2013-12-3,29.3,26.6,24.1,27.2,21.3,17.4,96,81,71,28.20,28.08,8,0,8,0.00
2013-12-4,34.3,28.9,24.3,34.3,27.0,19.6,100,93,82,28.20,27.64,11,1,11,0.00
2013-12-5,32.2,12.4,1.9,32.2,7.8,-3.6,100,82,78,28.38,27.67,16,4,16,0.00
2013-12-6,8.1,1.2,-3.5,2.4,-4.1,-8.7,78,78,78,28.67,28.38,11,1,11,0.00
2013-12-7,5.0,-4.0,-9.8,-0.6,-9.2,-14.8,78,78,78,28.76,28.67,10,1,10,0.00
2013-12-8,8.1,-1.4,-14.4,2.4,-6.7,-19.4,78,78,78,28.73,28.23,5,0,5,0.00
2013-12-9,8.1,0.2,-11.2,2.5,-5.1,-16.2,78,78,78,28.23,28.08,10,1,10,0.00
2013-12-10,8.1,-1.8,-10.7,2.5,-7.1,-15.7,78,78,78,28.35,28.05,14,1,14,0.00
2013-12-11,-0.4,-6.0,-11.2,-5.7,-11.1,-16.2,78,78,78,28.59,28.35,10,1,10,0.00
2013-12-12,10.9,1.7,-9.6,5.2,-3.6,-14.6,78,78,78,28.50,28.35,11,1,11,0.00
2013-12-13,7.3,3.8,-1.3,1.9,-1.6,-6.6,78,78,78,28.59,28.38,4,0,4,0.00
2013-12-14,15.8,8.1,1.0,8.2,0.5,-4.3,78,71,62,28.59,28.14,12,1,12,0.00
2013-12-15,7.2,-1.4,-14.6,-2.8,-11.0,-23.8,63,63,63,28.32,28.14,16,1,16,0.00
2013-12-16,7.9,1.3,-15.2,-2.2,-8.4,-24.1,63,63,63,28.35,28.08,13,3,13,0.00
2013-12-17,22.3,14.0,7.0,18.4,7.5,-3.0,86,75,63,28.23,28.02,4,2,4,0.00
2013-12-18,18.3,8.5,-1.7,11.2,2.1,-6.3,80,75,64,28.26,27.94,0,0,0,0.00
2013-12-19,18.9,14.6,10.8,13.1,7.8,3.2,79,74,71,28.38,28.02,0,0,0,0.00
2013-12-20,19.4,11.9,5.4,11.1,3.8,-2.2,74,69,66,28.35,28.14,0,0,0,0.00
2013-12-21,22.1,17.5,12.9,14.8,10.3,4.2,79,73,65,28.29,28.14,0,0,0,0.00
2013-12-22,22.6,19.4,14.4,18.7,13.9,8.4,86,79,73,28.41,28.23,0,0,0,0.00
2013-12-23,17.1,11.7,7.0,8.4,4.3,0.2,78,71,65,28.64,28.41,0,0,0,0.00
2013-12-24,16.5,9.2,-0.6,5.7,-0.7,-8.8,67,63,58,28.64,28.38,0,0,0,0.00
2013-12-25,17.6,11.5,7.0,7.5,1.1,-4.2,66,62,59,28.38,28.26,0,0,0,0.00
2013-12-26,16.5,8.2,2.5,5.7,-1.8,-8.5,66,63,59,28.44,28.29,0,0,0,0.00
2013-12-27,32.7,21.9,2.3,24.7,13.6,-8.8,86,70,59,28.44,28.08,0,0,0,0.00
2013-12-28,33.3,28.7,16.2,29.7,24.0,12.2,93,83,71,28.23,28.05,0,0,0,0.00
2013-12-29,16.0,2.6,-10.1,12.0,-1.8,-14.5,85,81,81,28.44,28.23,0,0,0,0.00
2013-12-30,-1.1,-10.4,-18.8,-5.5,-14.6,-22.8,81,81,81,28.47,28.35,0,0,0,0.00
2013-12-31,-4.7,-10.7,-16.6,-9.0,-14.9,-20.8,81,81,81,28.61,28.35,0,0,0,0.00
2014-1-1,1.6,-5.4,-16.6,-2.8,-9.7,-20.6,81,81,81,28.70,28.59,0,0,0,0.00
2014-1-2,8.1,-1.9,-12.8,3.3,-6.2,-16.9,81,81,81,28.64,28.56,0,0,0,0.00